Chilik Southeast Airfield

Jump to: basic info | weather | comments

Related pages: nearby airports | nearby navaids

Basic information (top)

Location: lon 43.223598, lat 78.732399, elev 4,497 ft / 1,371 m msl
Status: small_airport

Weather (top)

Current conditions for Almaty Airport 74nm (138km) W (rec'd 2014/04/18 07:30Z):

UAAA 180730Z 03003MPS 320V100 9999 FEW050 SCT200 16/M00 Q1022 88CLRD65 NOSIG

Airport forecast for Almaty Airport 74nm (138km) W (rec'd 2014/04/18 06:18Z):

TAF TAF UAAA 180500Z 1806/1906 02006MPS 9999 SCT050 BKN100 TX17/1809Z TN01/1901Z 
      BECMG 1813/1814 16004MPS 3000 BR FU 
      TEMPO 1814/1902 1000

Latest comments (top)

Spelling: OK oK its Kazakhstan♄, so you have a ... [read]

Airfield: I came across this airfield on Google, ... [read]

More... (top)

See also NOTAMs and nearby airports and navaids, or visit the Chilik Southeast Airfield page at the main OurAirports website..